WAT963 VTSM-VTBD
Flight info
| Callsign | WAT963 |
|---|---|
| Flight time | 0h 57m |
| Altitude | 34000 |
| Route | OLBAG1A OLBAG Y17 DONSI M769 GOKEX Y96 EMTIX/N0453F330 Y99 HOTEL SABAI3A |
| Aircraft | A320/M-SDE3FGHIRWY/LB1 |
Departure
| Time | 2026-04-28 13:36 |
|---|---|
| Airport | Samui International Airport (VTSM) |
Arrival
| Time | 2026-04-28 14:33 |
|---|---|
| Airport | Don Mueang International Airport (VTBD) |
| Time | Latitude | Longitude | Altitude | Speed | Heading |
|---|---|---|---|---|---|
| 2026-04-28 13:25 | 9.55393 | 100.06072 | 12 ft | 0 kts | 264° |
| 2026-04-28 13:34 | 9.55391 | 100.06070 | 12 ft | 2 kts | 242° |
| 2026-04-28 13:34 | 9.55380 | 100.06075 | 14 ft | 3 kts | 151° |
| 2026-04-28 13:34 | 9.55395 | 100.06124 | 12 ft | 9 kts | 64° |
| 2026-04-28 13:34 | 9.55416 | 100.06177 | 13 ft | 9 kts | 49° |
| 2026-04-28 13:35 | 9.55522 | 100.06183 | 10 ft | 16 kts | 353° |
| 2026-04-28 13:35 | 9.55634 | 100.06195 | 7 ft | 17 kts | 13° |
| 2026-04-28 13:35 | 9.55701 | 100.06177 | 6 ft | 7 kts | 267° |
| 2026-04-28 13:35 | 9.55623 | 100.06173 | 7 ft | 33 kts | 176° |
| 2026-04-28 13:36 | 9.55133 | 100.06221 | 17 ft | 105 kts | 175° |
| 2026-04-28 13:36 | 9.54226 | 100.06310 | 160 ft | 144 kts | 171° |
| 2026-04-28 13:36 | 9.53269 | 100.06455 | 902 ft | 138 kts | 157° |
| 2026-04-28 13:36 | 9.52381 | 100.06833 | 1584 ft | 137 kts | 156° |
| 2026-04-28 13:37 | 9.51482 | 100.07197 | 2068 ft | 147 kts | 158° |
| 2026-04-28 13:37 | 9.50470 | 100.07596 | 2385 ft | 164 kts | 157° |
| 2026-04-28 13:37 | 9.49348 | 100.08055 | 2657 ft | 184 kts | 158° |
| 2026-04-28 13:37 | 9.48084 | 100.08558 | 2921 ft | 205 kts | 158° |
| 2026-04-28 13:38 | 9.46834 | 100.09315 | 3424 ft | 215 kts | 131° |
| 2026-04-28 13:38 | 9.46226 | 100.10702 | 4029 ft | 223 kts | 94° |
| 2026-04-28 13:38 | 9.46230 | 100.12265 | 4757 ft | 227 kts | 90° |
| 2026-04-28 13:38 | 9.46247 | 100.13913 | 5377 ft | 233 kts | 91° |
| 2026-04-28 13:39 | 9.46264 | 100.15544 | 6100 ft | 236 kts | 84° |
| 2026-04-28 13:39 | 9.46835 | 100.17103 | 6739 ft | 241 kts | 53° |
| 2026-04-28 13:39 | 9.48106 | 100.18195 | 7409 ft | 244 kts | 23° |
| 2026-04-28 13:39 | 9.49760 | 100.18595 | 8135 ft | 246 kts | 10° |
| 2026-04-28 13:40 | 9.51453 | 100.18855 | 8875 ft | 246 kts | 9° |
| 2026-04-28 13:40 | 9.53153 | 100.19105 | 9616 ft | 248 kts | 10° |
| 2026-04-28 13:40 | 9.54873 | 100.19361 | 10246 ft | 251 kts | 6° |
| 2026-04-28 13:40 | 9.56675 | 100.19381 | 10598 ft | 270 kts | 1° |
| 2026-04-28 13:41 | 9.58634 | 100.19351 | 10800 ft | 294 kts | 0° |
| 2026-04-28 13:41 | 9.60737 | 100.19311 | 10982 ft | 317 kts | 360° |
| 2026-04-28 13:41 | 9.63024 | 100.19263 | 11146 ft | 340 kts | 0° |
| 2026-04-28 13:41 | 9.65436 | 100.19211 | 11560 ft | 351 kts | 360° |
| 2026-04-28 13:42 | 9.67899 | 100.19161 | 12157 ft | 356 kts | 360° |
| 2026-04-28 13:42 | 9.70393 | 100.19113 | 12767 ft | 361 kts | 360° |
| 2026-04-28 13:42 | 9.72911 | 100.19225 | 13365 ft | 363 kts | 11° |
| 2026-04-28 13:42 | 9.75333 | 100.19964 | 13895 ft | 366 kts | 26° |
| 2026-04-28 13:43 | 9.77632 | 100.21119 | 14435 ft | 369 kts | 28° |
| 2026-04-28 13:43 | 9.79928 | 100.22287 | 14984 ft | 372 kts | 28° |
| 2026-04-28 13:43 | 9.81466 | 100.23068 | 15337 ft | 374 kts | 28° |
| 2026-04-28 13:43 | 9.84600 | 100.24654 | 16047 ft | 378 kts | 27° |
| 2026-04-28 13:44 | 9.86165 | 100.25446 | 16397 ft | 380 kts | 28° |
| 2026-04-28 13:44 | 9.89322 | 100.27045 | 17088 ft | 385 kts | 28° |
| 2026-04-28 13:44 | 9.91727 | 100.28261 | 17601 ft | 388 kts | 27° |
| 2026-04-28 13:44 | 9.93362 | 100.29088 | 17947 ft | 390 kts | 28° |
| 2026-04-28 13:45 | 9.95798 | 100.30321 | 18408 ft | 393 kts | 28° |
| 2026-04-28 13:45 | 9.98250 | 100.31565 | 18838 ft | 395 kts | 28° |
| 2026-04-28 13:45 | 10.00690 | 100.32881 | 19285 ft | 397 kts | 30° |
| 2026-04-28 13:45 | 10.03095 | 100.34267 | 19715 ft | 399 kts | 31° |
| 2026-04-28 13:46 | 10.05497 | 100.35702 | 20130 ft | 402 kts | 31° |
| 2026-04-28 13:46 | 10.07910 | 100.37159 | 20548 ft | 405 kts | 31° |
| 2026-04-28 13:46 | 10.10360 | 100.38586 | 20957 ft | 407 kts | 26° |
| 2026-04-28 13:46 | 10.12976 | 100.39610 | 21368 ft | 410 kts | 15° |
| 2026-04-28 13:47 | 10.15787 | 100.40105 | 21792 ft | 412 kts | 4° |
| 2026-04-28 13:47 | 10.18654 | 100.40178 | 22216 ft | 413 kts | 1° |
| 2026-04-28 13:47 | 10.21535 | 100.40231 | 22642 ft | 415 kts | 1° |
| 2026-04-28 13:47 | 10.24427 | 100.40297 | 23062 ft | 417 kts | 1° |
| 2026-04-28 13:48 | 10.27332 | 100.40372 | 23450 ft | 419 kts | 1° |
| 2026-04-28 13:48 | 10.30251 | 100.40450 | 23784 ft | 420 kts | 1° |
| 2026-04-28 13:48 | 10.33180 | 100.40528 | 24140 ft | 421 kts | 1° |
| 2026-04-28 13:48 | 10.36114 | 100.40602 | 24484 ft | 423 kts | 1° |
| 2026-04-28 13:49 | 10.39063 | 100.40675 | 24786 ft | 425 kts | 0° |
| 2026-04-28 13:49 | 10.42025 | 100.40745 | 25118 ft | 427 kts | 0° |
| 2026-04-28 13:49 | 10.44999 | 100.40815 | 25441 ft | 428 kts | 0° |
| 2026-04-28 13:49 | 10.47993 | 100.40887 | 25751 ft | 430 kts | 0° |
| 2026-04-28 13:50 | 10.50994 | 100.40957 | 26053 ft | 432 kts | 0° |
| 2026-04-28 13:50 | 10.54006 | 100.41026 | 26374 ft | 434 kts | 0° |
| 2026-04-28 13:50 | 10.57030 | 100.41096 | 26672 ft | 436 kts | 0° |
| 2026-04-28 13:50 | 10.60065 | 100.41168 | 26976 ft | 437 kts | 0° |
| 2026-04-28 13:51 | 10.63113 | 100.41240 | 27269 ft | 439 kts | 0° |
| 2026-04-28 13:51 | 10.66176 | 100.41314 | 27582 ft | 440 kts | 0° |
| 2026-04-28 13:51 | 10.69244 | 100.41388 | 27884 ft | 442 kts | 0° |
| 2026-04-28 13:51 | 10.72323 | 100.41464 | 28185 ft | 443 kts | 0° |
| 2026-04-28 13:52 | 10.75419 | 100.41540 | 28481 ft | 445 kts | 0° |
| 2026-04-28 13:52 | 10.78474 | 100.41616 | 28775 ft | 446 kts | 360° |
| 2026-04-28 13:52 | 10.81580 | 100.41692 | 29080 ft | 447 kts | 360° |
| 2026-04-28 13:52 | 10.84702 | 100.41768 | 29362 ft | 448 kts | 360° |
| 2026-04-28 13:53 | 10.87825 | 100.41844 | 29638 ft | 450 kts | 360° |
| 2026-04-28 13:53 | 10.90957 | 100.41919 | 29893 ft | 451 kts | 359° |
| 2026-04-28 13:53 | 10.94104 | 100.41995 | 30120 ft | 452 kts | 359° |
| 2026-04-28 13:53 | 10.97253 | 100.42073 | 30346 ft | 453 kts | 359° |
| 2026-04-28 13:54 | 11.00417 | 100.42151 | 30569 ft | 454 kts | 359° |
| 2026-04-28 13:54 | 11.03589 | 100.42227 | 30785 ft | 456 kts | 359° |
| 2026-04-28 13:54 | 11.06764 | 100.42302 | 31014 ft | 456 kts | 359° |
| 2026-04-28 13:54 | 11.09934 | 100.42378 | 31334 ft | 455 kts | 359° |
| 2026-04-28 13:55 | 11.13087 | 100.42452 | 31668 ft | 453 kts | 359° |
| 2026-04-28 13:55 | 11.16238 | 100.42529 | 31985 ft | 453 kts | 359° |
| 2026-04-28 13:55 | 11.19384 | 100.42608 | 32288 ft | 452 kts | 359° |
| 2026-04-28 13:55 | 11.22524 | 100.42685 | 32603 ft | 451 kts | 359° |
| 2026-04-28 13:56 | 11.25624 | 100.42761 | 32916 ft | 450 kts | 358° |
| 2026-04-28 13:56 | 11.28731 | 100.42575 | 33220 ft | 446 kts | 348° |
| 2026-04-28 13:56 | 11.31729 | 100.41841 | 33540 ft | 442 kts | 339° |
| 2026-04-28 13:56 | 11.34537 | 100.40599 | 33798 ft | 440 kts | 330° |
| 2026-04-28 13:57 | 11.39837 | 100.37610 | 33852 ft | 432 kts | 330° |
| 2026-04-28 13:57 | 11.45097 | 100.34674 | 33852 ft | 431 kts | 330° |
| 2026-04-28 13:58 | 11.50350 | 100.31741 | 33852 ft | 430 kts | 330° |
| 2026-04-28 13:58 | 11.55598 | 100.28803 | 33852 ft | 430 kts | 330° |
| 2026-04-28 13:59 | 11.60841 | 100.25864 | 33850 ft | 430 kts | 330° |
| 2026-04-28 13:59 | 11.66088 | 100.22932 | 33848 ft | 430 kts | 330° |
| 2026-04-28 14:00 | 11.71336 | 100.20001 | 33848 ft | 430 kts | 329° |
| 2026-04-28 14:00 | 11.76581 | 100.17059 | 33847 ft | 430 kts | 329° |
| 2026-04-28 14:01 | 11.82087 | 100.14771 | 33846 ft | 434 kts | 346° |
| 2026-04-28 14:01 | 11.88149 | 100.14634 | 33848 ft | 442 kts | 6° |
| 2026-04-28 14:02 | 11.94236 | 100.15647 | 33837 ft | 444 kts | 5° |
| 2026-04-28 14:02 | 12.00346 | 100.16642 | 33833 ft | 445 kts | 5° |
| 2026-04-28 14:03 | 12.06466 | 100.17632 | 33835 ft | 445 kts | 5° |
| 2026-04-28 14:03 | 12.12588 | 100.18627 | 33838 ft | 446 kts | 5° |
| 2026-04-28 14:04 | 12.18713 | 100.19633 | 33831 ft | 446 kts | 6° |
| 2026-04-28 14:04 | 12.24843 | 100.20644 | 33838 ft | 446 kts | 5° |
| 2026-04-28 14:05 | 12.30930 | 100.21641 | 33826 ft | 445 kts | 5° |
| 2026-04-28 14:05 | 12.37047 | 100.22640 | 33826 ft | 445 kts | 5° |
| 2026-04-28 14:06 | 12.43177 | 100.23645 | 33806 ft | 445 kts | 5° |
| 2026-04-28 14:06 | 12.49335 | 100.24648 | 33505 ft | 452 kts | 5° |
| 2026-04-28 14:07 | 12.52437 | 100.25155 | 33255 ft | 451 kts | 5° |
| 2026-04-28 14:07 | 12.55531 | 100.25664 | 33004 ft | 450 kts | 5° |
| 2026-04-28 14:07 | 12.58620 | 100.26173 | 32751 ft | 448 kts | 5° |
| 2026-04-28 14:07 | 12.61693 | 100.26679 | 32503 ft | 447 kts | 5° |
| 2026-04-28 14:08 | 12.64723 | 100.27178 | 32176 ft | 444 kts | 5° |
| 2026-04-28 14:08 | 12.67767 | 100.27679 | 31598 ft | 441 kts | 5° |
| 2026-04-28 14:08 | 12.70787 | 100.28174 | 31023 ft | 438 kts | 5° |
| 2026-04-28 14:08 | 12.73790 | 100.28670 | 30441 ft | 436 kts | 6° |
| 2026-04-28 14:09 | 12.76780 | 100.29167 | 29879 ft | 434 kts | 6° |
| 2026-04-28 14:09 | 12.79756 | 100.29661 | 29252 ft | 432 kts | 6° |
| 2026-04-28 14:09 | 12.82706 | 100.30146 | 28705 ft | 427 kts | 6° |
| 2026-04-28 14:09 | 12.85629 | 100.30621 | 28153 ft | 424 kts | 6° |
| 2026-04-28 14:10 | 12.88528 | 100.31094 | 27606 ft | 420 kts | 6° |
| 2026-04-28 14:10 | 12.91407 | 100.31565 | 27082 ft | 416 kts | 6° |
| 2026-04-28 14:10 | 12.94250 | 100.32033 | 26560 ft | 413 kts | 6° |
| 2026-04-28 14:10 | 12.97077 | 100.32499 | 26051 ft | 410 kts | 6° |
| 2026-04-28 14:11 | 12.99885 | 100.32920 | 25555 ft | 405 kts | 2° |
| 2026-04-28 14:11 | 13.02684 | 100.32960 | 25079 ft | 399 kts | 356° |
| 2026-04-28 14:11 | 13.05418 | 100.32897 | 24616 ft | 396 kts | 356° |
| 2026-04-28 14:11 | 13.08166 | 100.32837 | 24151 ft | 394 kts | 356° |
| 2026-04-28 14:12 | 13.10894 | 100.32781 | 23689 ft | 391 kts | 356° |
| 2026-04-28 14:12 | 13.13608 | 100.32735 | 23184 ft | 389 kts | 358° |
| 2026-04-28 14:12 | 13.16308 | 100.32730 | 22693 ft | 386 kts | 358° |
| 2026-04-28 14:12 | 13.18989 | 100.32753 | 22226 ft | 383 kts | 358° |
| 2026-04-28 14:13 | 13.21645 | 100.32785 | 21753 ft | 380 kts | 358° |
| 2026-04-28 14:13 | 13.24298 | 100.32815 | 21386 ft | 383 kts | 359° |
| 2026-04-28 14:13 | 13.26969 | 100.32839 | 21020 ft | 383 kts | 358° |
| 2026-04-28 14:13 | 13.29625 | 100.32854 | 20647 ft | 381 kts | 358° |
| 2026-04-28 14:14 | 13.32261 | 100.32865 | 20271 ft | 377 kts | 358° |
| 2026-04-28 14:14 | 13.34880 | 100.32878 | 19902 ft | 375 kts | 358° |
| 2026-04-28 14:14 | 13.37482 | 100.32890 | 19538 ft | 373 kts | 358° |
| 2026-04-28 14:14 | 13.40070 | 100.32905 | 19171 ft | 371 kts | 358° |
| 2026-04-28 14:15 | 13.42644 | 100.32920 | 18803 ft | 369 kts | 358° |
| 2026-04-28 14:15 | 13.45189 | 100.32758 | 18447 ft | 365 kts | 349° |
| 2026-04-28 14:15 | 13.47653 | 100.32188 | 18155 ft | 362 kts | 344° |
| 2026-04-28 14:15 | 13.50101 | 100.31578 | 17836 ft | 361 kts | 345° |
| 2026-04-28 14:16 | 13.52539 | 100.30977 | 17488 ft | 359 kts | 344° |
| 2026-04-28 14:16 | 13.54963 | 100.30384 | 17123 ft | 357 kts | 344° |
| 2026-04-28 14:16 | 13.57376 | 100.29790 | 16779 ft | 356 kts | 344° |
| 2026-04-28 14:16 | 13.59780 | 100.29197 | 16432 ft | 355 kts | 345° |
| 2026-04-28 14:17 | 13.62175 | 100.28604 | 16080 ft | 354 kts | 345° |
| 2026-04-28 14:17 | 13.64560 | 100.28011 | 15731 ft | 352 kts | 345° |
| 2026-04-28 14:17 | 13.66900 | 100.27430 | 15390 ft | 350 kts | 345° |
| 2026-04-28 14:17 | 13.69266 | 100.26845 | 15042 ft | 349 kts | 345° |
| 2026-04-28 14:18 | 13.71625 | 100.26275 | 14692 ft | 348 kts | 348° |
| 2026-04-28 14:18 | 13.74045 | 100.26102 | 14349 ft | 348 kts | 3° |
| 2026-04-28 14:18 | 13.76414 | 100.26554 | 14005 ft | 348 kts | 18° |
| 2026-04-28 14:18 | 13.78603 | 100.27605 | 13657 ft | 348 kts | 31° |
| 2026-04-28 14:19 | 13.80665 | 100.28910 | 13281 ft | 347 kts | 31° |
| 2026-04-28 14:19 | 13.82698 | 100.30193 | 13092 ft | 338 kts | 31° |
| 2026-04-28 14:19 | 13.84671 | 100.31435 | 12983 ft | 327 kts | 31° |
| 2026-04-28 14:19 | 13.86596 | 100.32640 | 12778 ft | 321 kts | 31° |
| 2026-04-28 14:20 | 13.88491 | 100.33824 | 12479 ft | 317 kts | 30° |
| 2026-04-28 14:20 | 13.90352 | 100.34990 | 12255 ft | 306 kts | 30° |
| 2026-04-28 14:20 | 13.92142 | 100.36113 | 11835 ft | 298 kts | 30° |
| 2026-04-28 14:20 | 13.93904 | 100.37218 | 11479 ft | 297 kts | 30° |
| 2026-04-28 14:21 | 13.95663 | 100.38320 | 11151 ft | 295 kts | 30° |
| 2026-04-28 14:21 | 13.97415 | 100.39418 | 10852 ft | 293 kts | 30° |
| 2026-04-28 14:21 | 13.99155 | 100.40512 | 10550 ft | 292 kts | 30° |
| 2026-04-28 14:21 | 14.00882 | 100.41596 | 10243 ft | 290 kts | 30° |
| 2026-04-28 14:22 | 14.02598 | 100.42672 | 9932 ft | 288 kts | 30° |
| 2026-04-28 14:22 | 14.04303 | 100.43744 | 9667 ft | 283 kts | 30° |
| 2026-04-28 14:22 | 14.05965 | 100.44791 | 9169 ft | 277 kts | 30° |
| 2026-04-28 14:22 | 14.07607 | 100.45824 | 8596 ft | 275 kts | 30° |
| 2026-04-28 14:23 | 14.09237 | 100.46849 | 8502 ft | 276 kts | 30° |
| 2026-04-28 14:23 | 14.10887 | 100.47886 | 8391 ft | 277 kts | 30° |
| 2026-04-28 14:23 | 14.12513 | 100.48908 | 8281 ft | 277 kts | 30° |
| 2026-04-28 14:23 | 14.14158 | 100.49945 | 7965 ft | 276 kts | 30° |
| 2026-04-28 14:24 | 14.15790 | 100.50975 | 7695 ft | 273 kts | 30° |
| 2026-04-28 14:24 | 14.17354 | 100.51963 | 7564 ft | 254 kts | 30° |
| 2026-04-28 14:24 | 14.18776 | 100.52950 | 7302 ft | 243 kts | 42° |
| 2026-04-28 14:24 | 14.19786 | 100.54333 | 6963 ft | 243 kts | 64° |
| 2026-04-28 14:25 | 14.20213 | 100.56010 | 6657 ft | 244 kts | 87° |
| 2026-04-28 14:25 | 14.20066 | 100.57746 | 6357 ft | 243 kts | 97° |
| 2026-04-28 14:25 | 14.19835 | 100.59484 | 6063 ft | 246 kts | 97° |
| 2026-04-28 14:25 | 14.19609 | 100.61236 | 5754 ft | 247 kts | 98° |
| 2026-04-28 14:26 | 14.19388 | 100.62977 | 5555 ft | 241 kts | 98° |
| 2026-04-28 14:26 | 14.19033 | 100.64631 | 5300 ft | 237 kts | 115° |
| 2026-04-28 14:26 | 14.18176 | 100.65991 | 5173 ft | 219 kts | 136° |
| 2026-04-28 14:26 | 14.17021 | 100.66890 | 5058 ft | 199 kts | 154° |
| 2026-04-28 14:27 | 14.15754 | 100.67357 | 4743 ft | 190 kts | 165° |
| 2026-04-28 14:27 | 14.14484 | 100.67716 | 4359 ft | 188 kts | 165° |
| 2026-04-28 14:27 | 14.13234 | 100.68071 | 3994 ft | 185 kts | 165° |
| 2026-04-28 14:27 | 14.11989 | 100.68424 | 3573 ft | 186 kts | 165° |
| 2026-04-28 14:28 | 14.10752 | 100.68776 | 3312 ft | 183 kts | 164° |
| 2026-04-28 14:28 | 14.09524 | 100.69124 | 3174 ft | 183 kts | 164° |
| 2026-04-28 14:28 | 14.08289 | 100.69431 | 3058 ft | 182 kts | 173° |
| 2026-04-28 14:28 | 14.07032 | 100.69324 | 2983 ft | 183 kts | 194° |
| 2026-04-28 14:29 | 14.05847 | 100.68812 | 2948 ft | 185 kts | 199° |
| 2026-04-28 14:29 | 14.04661 | 100.68311 | 2635 ft | 186 kts | 201° |
| 2026-04-28 14:29 | 14.03501 | 100.67728 | 2375 ft | 184 kts | 204° |
| 2026-04-28 14:29 | 14.02393 | 100.67125 | 2134 ft | 175 kts | 205° |
| 2026-04-28 14:30 | 14.01354 | 100.66546 | 1922 ft | 164 kts | 206° |
| 2026-04-28 14:30 | 14.00391 | 100.66007 | 1737 ft | 150 kts | 206° |
| 2026-04-28 14:30 | 13.99793 | 100.65672 | 1618 ft | 145 kts | 205° |
| 2026-04-28 14:30 | 13.98635 | 100.65023 | 1365 ft | 142 kts | 206° |
| 2026-04-28 14:31 | 13.97764 | 100.64534 | 1178 ft | 141 kts | 206° |
| 2026-04-28 14:31 | 13.96908 | 100.64054 | 998 ft | 140 kts | 206° |
| 2026-04-28 14:31 | 13.96343 | 100.63737 | 894 ft | 140 kts | 206° |
| 2026-04-28 14:31 | 13.95485 | 100.63256 | 732 ft | 140 kts | 206° |
| 2026-04-28 14:32 | 13.94621 | 100.62771 | 558 ft | 141 kts | 207° |
| 2026-04-28 14:32 | 13.93774 | 100.62296 | 367 ft | 141 kts | 208° |
| 2026-04-28 14:32 | 13.92895 | 100.61803 | 168 ft | 143 kts | 207° |
| 2026-04-28 14:32 | 13.92033 | 100.61316 | 26 ft | 139 kts | 207° |
| 2026-04-28 14:33 | 13.91334 | 100.60924 | 13 ft | 76 kts | 209° |
| 2026-04-28 14:33 | 13.90970 | 100.60724 | 15 ft | 54 kts | 207° |
| 2026-04-28 14:33 | 13.90662 | 100.60556 | 16 ft | 46 kts | 210° |
| 2026-04-28 14:33 | 13.90394 | 100.60398 | 14 ft | 43 kts | 210° |
| 2026-04-28 14:34 | 13.90174 | 100.60122 | 13 ft | 24 kts | 298° |
| 2026-04-28 14:34 | 13.90256 | 100.59972 | 14 ft | 21 kts | 299° |
| 2026-04-28 14:34 | 13.90330 | 100.59831 | 12 ft | 18 kts | 300° |
| 2026-04-28 14:35 | 13.90384 | 100.59725 | 13 ft | 16 kts | 296° |
| 2026-04-28 14:35 | 13.90434 | 100.59624 | 14 ft | 15 kts | 298° |
| 2026-04-28 14:35 | 13.90468 | 100.59564 | 14 ft | 6 kts | 300° |
| 2026-04-28 14:35 | 13.90477 | 100.59549 | 15 ft | 0 kts | 301° |